Tiempo atmosférico en la estación meteorológica de Mula, Murcia (290 m.)



Fecha
DESCASC
Temp. máxima en grados centígrados (hora)
DESCASC
Temp. mínima en grados centígrados (hora)
DESCASC
Temp. media en grados centígrados
DESCASC
Racha de viento máxima en m/sg (hora)
DESCASC
Velocidad máxima media en intervalos de 10 minutos(hora)
DESCASC
Precipitaciones diarias en mm
DESCASC
Precipitaciones de 00:00 a 06:00 en mm
DESCASC
Precipitaciones de 06:00 a 12:00 en mm
DESCASC
Precipitaciones de 12:00 a 18:00 en mm
DESCASC
Precipitaciones de 18:00 a 24:00 en mm
DESCASC
24-09-2020 32.4 (16:40) 19.4 (07:30) 25.9 15.56 (17:40) 7.78 (18:20) 0 0 0 0 0
23-09-2020 33.5 (15:30) 17.4 (00:00) 25.4 7.5 (16:20) 4.44 (16:30) 0 0 0 0 0
22-09-2020 30.5 (15:00) 17 (00:00) 23.8 6.67 (19:30) 3.33 (18:30) 0 0 0 0 0
21-09-2020 30.8 (16:40) 18 (00:00) 24.4 7.78 (20:10) 4.72 (20:10) 0 0 0 0 0
20-09-2020 30.7 (16:10) 17.3 (00:00) 24 8.61 (19:10) 4.44 (12:00) 0 0 0 0 0
19-09-2020 30.8 (15:20) 16.6 (00:00) 23.7 10 (06:30) 5.83 (06:20) 0 0 0 0 0
18-09-2020 22.5 (18:50) 17.8 (00:00) 20.1 13.33 (06:30) 6.94 (06:30) 6.6 0.8 4 1.8 0
17-09-2020 29 (16:50) 20.6 (00:00) 24.8 8.61 (15:20) 5.56 (16:00) 1.6 0 0 0 1.6
16-09-2020 31.3 (16:10) 17.6 (00:00) 24.4 9.17 (17:30) 6.11 (17:20) 0 0 0 0 0
15-09-2020 32 (15:20) 18.8 (00:00) 25.4 8.89 (18:00) 5.83 (18:00) 0 0 0 0 0
14-09-2020 29.6 (15:20) 16.7 (00:00) 23.2 8.33 (15:10) 4.72 (17:40) 0.2 0 0 0 0.2
13-09-2020 30.7 (15:10) 16.7 (00:00) 23.7 8.89 (16:30) 5 (18:00) 0 0 0 0 0
12-09-2020 32.1 (15:30) 16 (00:00) 24 8.89 (18:30) 5 (19:00) 0 0 0 0 0
11-09-2020 32.8 (16:10) 16.3 (00:00) 24.5 8.61 (16:50) 4.17 (16:50) 0 0 0 0 0
10-09-2020 31.1 (16:40) 15.9 (00:00) 23.5 7.78 (17:00) 3.61 (15:20) 0 0 0 0 0
09-09-2020 30.3 (16:20) 15.5 (00:00) 22.9 7.78 (17:50) 5 (10:30) 0 0 0 0 0
08-09-2020 27.1 (15:50) 18.5 (00:00) 22.8 8.89 (15:50) 5.56 (18:20) 0 0 0 0 0
07-09-2020 30.1 (16:00) 18.1 (06:20) 24.1 10 (17:40) 6.11 (17:40) 0 0 0 0 0
06-09-2020 30.4 (15:30) 17 (00:00) 23.7 6.94 (18:30) 4.17 (18:30) 0 0 0 0 0
05-09-2020 30.5 (16:40) 16.1 (00:00) 23.3 8.61 (19:00) 5.56 (19:00) 0 0 0 0 0
04-09-2020 29.2 (15:30) 16.7 (00:00) 23 9.17 (17:20) 5 (16:40) 0 0 0 0 0
03-09-2020 29.7 (16:50) 16 (00:00) 22.9 10.28 (15:00) 5 (19:50) 0 0 0 0 0
02-09-2020 29.7 (15:40) 17.7 (00:00) 23.7 9.44 (16:00) 5 (17:50) 0 0 0 0 0
01-09-2020 26.8 (16:50) 15 (00:00) 20.9 6.94 (16:20) 3.61 (16:10) 0 0 0 0 0
31-08-2020 28.9 (16:00) 15.2 (00:00) 22 9.17 (18:20) 5 (18:50) 0 0 0 0 0
30-08-2020 29.6 (16:10) 17.3 (00:00) 23.4 9.17 (20:30) 5.83 (19:40) 0 0 0 0 0
29-08-2020 34.2 (16:00) 22.7 (00:00) 28.5 12.5 (20:50) 7.78 (20:40) 0 0 0 0 0
28-08-2020 36.7 (16:30) 18.5 (00:00) 27.6 7.22 (16:40) 3.89 (14:50) 0 0 0 0 0

Gráficas

Temp. máximas Temp. mínimas Temp. medias Precipitaciones Rachas de viento máximas Velocidades máximas media en intervalos de 10 minutos

Datos horarios

Fecha y hora oficial Temperatura (ºC) Velocidad del viento (km/h) Dirección del viento Racha (km/h) Dirección de racha Precipitación (mm) Presión (hPa) Tendencia (hPa) Humedad (%)
2020-09-26 23:00:00 18.6 8 Oeste 14 Oeste 0 -- -- 47
2020-09-26 22:00:00 19.5 7 Sudoeste 12 Oeste 0 -- -- 43
2020-09-26 21:00:00 21.2 2 Nordeste 12 Sur 0 -- -- 41
2020-09-26 20:00:00 23.2 4 Sur 17 Sudoeste 0 -- -- 33
2020-09-26 19:00:00 25.8 3 Este 18 Norte 0 -- -- 26
2020-09-26 18:00:00 26.4 8 Norte 20 Norte 0 -- -- 25
2020-09-26 17:00:00 27.3 9 Norte 29 Norte 0 -- -- 24
2020-09-26 16:00:00 26.8 16 Norte 31 Norte 0 -- -- 24
2020-09-26 15:00:00 26.1 19 Norte 40 Noroeste 0 -- -- 25
2020-09-26 14:00:00 24.8 14 Norte 33 Norte 0 -- -- 26
2020-09-26 13:00:00 23.1 20 Norte 35 Noroeste 0 -- -- 28
2020-09-26 12:00:00 21.1 19 Norte 36 Noroeste 0 -- -- 30
2020-09-26 11:00:00 19.7 20 Norte 30 Norte 0 -- -- 33
2020-09-26 10:00:00 18 13 Noroeste 26 Noroeste 0 -- -- 38
2020-09-26 09:00:00 16.1 14 Noroeste 23 Noroeste 0 -- -- 42
2020-09-26 08:00:00 15.9 12 Noroeste 25 Norte 0 -- -- 41
2020-09-26 07:00:00 16.4 11 Noroeste 21 Noroeste 0 -- -- 40
2020-09-26 06:00:00 16.8 9 Oeste 23 Noroeste 0 -- -- 38
2020-09-26 05:00:00 17.2 12 Noroeste 27 Noroeste 0 -- -- 37
2020-09-26 04:00:00 17.3 14 Noroeste 28 Noroeste 0 -- -- 37
2020-09-26 03:00:00 18.1 20 Noroeste 29 Noroeste 0 -- -- 35
2020-09-26 02:00:00 18.1 16 Noroeste 26 Noroeste 0 -- -- 35
2020-09-26 01:00:00 18.9 18 Noroeste 33 Noroeste 0 -- -- 33
2020-09-26 00:00:00 19.9 16 Norte 34 Noroeste 0 -- -- 31
2020-09-25 23:00:00 20.7 19 Norte 61 Norte 0 -- -- 29
2020-09-25 22:00:00 21.6 27 Norte 48 Noroeste 0 -- -- 26
2020-09-25 21:00:00 22.7 29 Norte 47 Norte 0 -- -- 28
2020-09-25 20:00:00 23.9 19 Norte 42 Noroeste 0 -- -- 28
2020-09-25 19:00:00 25.8 22 Noroeste 50 Noroeste 0 -- -- 26
2020-09-25 18:00:00 26.8 33 Noroeste 55 Norte 0 -- -- 24
2020-09-25 17:00:00 27.5 35 Norte 53 Norte 0 -- -- 23
2020-09-25 16:00:00 27.8 31 Norte 53 Noroeste 0 -- -- 24
2020-09-25 15:00:00 27.7 31 Noroeste 48 Noroeste 0 -- -- 25
2020-09-25 14:00:00 27.6 26 Norte 45 Norte 0 -- -- 28
2020-09-25 13:00:00 27.4 21 Norte 42 Noroeste 0 -- -- 27
2020-09-25 12:00:00 26.1 22 Norte 36 Noroeste 0 -- -- 30
2020-09-25 11:00:00 24.3 20 Norte 33 Norte 0 -- -- 37
2020-09-25 10:00:00 23.1 17 Noroeste 26 Noroeste 0 -- -- 41
2020-09-25 09:00:00 20.9 13 Noroeste 22 Noroeste 0 -- -- 48
2020-09-25 08:00:00 20.4 12 Noroeste 17 Noroeste 0 -- -- 53
2020-09-25 07:00:00 21 4 Este 7 Este 0 -- -- 58
2020-09-25 06:00:00 21.4 3 Oeste 22 Oeste 0 -- -- 57
2020-09-25 05:00:00 22.5 14 Oeste 22 Oeste 0 -- -- 53
2020-09-25 04:00:00 23.3 7 Oeste 20 Oeste 0 -- -- 51
2020-09-25 03:00:00 24.4 13 Oeste 31 Oeste 0 -- -- 48
2020-09-25 02:00:00 24.7 8 Oeste 22 Oeste 0 -- -- 47
2020-09-25 01:00:00 25.5 12 Oeste 28 Oeste 0 -- -- 44
2020-09-25 00:00:00 25.6 13 Noroeste 22 Noroeste 0 -- -- 44
2020-09-24 23:00:00 26.2 14 Noroeste 28 Noroeste 0 -- -- 42
2020-09-24 22:00:00 26.4 15 Noroeste 24 Norte 0 -- -- 42
2020-09-24 21:00:00 27.9 11 Noroeste 33 Noroeste 0 -- -- 37
2020-09-24 20:00:00 29.1 16 Oeste 44 Oeste 0 -- -- 32
2020-09-24 19:00:00 30.2 21 Oeste 51 Oeste 0 -- -- 31
2020-09-24 18:00:00 31.6 25 Oeste 56 Oeste 0 -- -- 28
2020-09-24 17:00:00 31.9 22 Oeste 52 Oeste 0 -- -- 27
2020-09-24 16:00:00 31.4 13 Noroeste 23 Norte 0 -- -- 35
2020-09-24 15:00:00 30.7 6 Este 16 Este 0 -- -- 35
2020-09-24 14:00:00 30.8 4 Norte 13 Sudeste 0 -- -- 36
2020-09-24 13:00:00 28.3 6 Este 13 Este 0 -- -- 41
2020-09-24 12:00:00 25.4 0 Calma 6 Sudeste 0 -- -- 48
2020-09-24 11:00:00 23.9 2 Sur 6 Sur 0 -- -- 54
2020-09-24 10:00:00 21.7 0 Calma 9 Sudeste 0 -- -- 60
2020-09-24 09:00:00 20.2 0 Calma 8 Sudeste 0 -- -- 65
2020-09-24 08:00:00 19.7 3 Sur 10 Oeste 0 -- -- 63
2020-09-24 07:00:00 19.8 2 Sudoeste 10 Noroeste 0 -- -- 62
2020-09-24 06:00:00 21.2 3 Oeste 10 Noroeste 0 -- -- 57
2020-09-24 05:00:00 22 5 Oeste 11 Noroeste 0 -- -- 55
2020-09-24 04:00:00 23.4 10 Noroeste 16 Noroeste 0 -- -- 51
2020-09-24 03:00:00 23.9 11 Noroeste 18 Noroeste 0 -- -- 49
2020-09-24 02:00:00 24.2 10 Noroeste 20 Oeste 0 -- -- 47
2020-09-24 01:00:00 23.7 11 Noroeste 17 Oeste 0 -- -- 48
2020-09-24 00:00:00 24 6 Oeste 14 Oeste 0 -- -- 46
2020-09-23 23:00:00 23.2 6 Oeste 12 Noroeste 0 -- -- 53
2020-09-23 22:00:00 23.6 8 Oeste 14 Sudoeste 0 -- -- 55
2020-09-23 21:00:00 25 5 Noroeste 9 Noroeste 0 -- -- 51
2020-09-23 20:00:00 26.9 2 Oeste 13 Sur 0 -- -- 48
2020-09-23 19:00:00 28.4 7 Sur 19 Sur 0 -- -- 43
2020-09-23 18:00:00 30.1 7 Sudeste 19 Este 0 -- -- 37
2020-09-23 17:00:00 30.4 9 Nordeste 27 Este 0 -- -- 30
2020-09-23 16:00:00 32.8 5 Norte 24 Sur 0 -- -- 26
2020-09-23 15:00:00 32.8 12 Sudoeste 25 Sudoeste 0 -- -- 25
2020-09-23 14:00:00 31.5 4 Sudoeste 18 Sudoeste 0 -- -- 27
2020-09-23 13:00:00 29.4 4 Este 10 Nordeste 0 -- -- 33
2020-09-23 12:00:00 26.8 2 Sur 8 Sudoeste 0 -- -- 39
2020-09-23 11:00:00 23.4 5 Sudoeste 14 Oeste 0 -- -- 55
2020-09-23 10:00:00 19.1 10 Oeste 16 Oeste 0 -- -- 65
2020-09-23 09:00:00 18 9 Oeste 18 Oeste 0 -- -- 66
2020-09-23 08:00:00 17.8 13 Oeste 19 Sudoeste 0 -- -- 65
2020-09-23 07:00:00 18.4 8 Oeste 17 Oeste 0 -- -- 64
2020-09-23 06:00:00 18.7 11 Oeste 17 Oeste 0 -- -- 65
2020-09-23 05:00:00 19 10 Oeste 15 Oeste 0 -- -- 68
2020-09-23 04:00:00 19.9 5 Oeste 12 Oeste 0 -- -- 65
2020-09-23 03:00:00 19.4 4 Oeste 12 Sudoeste 0 -- -- 69
2020-09-23 02:00:00 19.5 4 Oeste 12 Oeste 0 -- -- 71
2020-09-23 01:00:00 19.9 7 Oeste 13 Oeste 0 -- -- 70
2020-09-23 00:00:00 21 7 Oeste 8 Oeste 0 -- -- 70
2020-09-22 23:00:00 21.6 3 Norte 5 Nordeste 0 -- -- 67
2020-09-22 22:00:00 22.4 2 Norte 6 Nordeste 0 -- -- 64
2020-09-22 21:00:00 24 0 Calma 12 Sur 0 -- -- 57
2020-09-22 20:00:00 25.1 8 Sur 24 Sudoeste 0 -- -- 51
2020-09-22 19:00:00 27.5 11 Sur 24 Sur 0 -- -- 44
2020-09-22 18:00:00 29.4 9 Sur 23 Sudeste 0 -- -- 42
2020-09-22 17:00:00 30 11 Sudeste 23 Sudeste 0 -- -- 36
2020-09-22 16:00:00 30.3 12 Sudeste 24 Sudeste 0 -- -- 34
2020-09-22 15:00:00 30.5 7 Sudeste 18 Este 0 -- -- 35
2020-09-22 14:00:00 29.6 8 Este 19 Este 0 -- -- 35
2020-09-22 13:00:00 28.8 3 Este 15 Sudeste 0 -- -- 36
2020-09-22 12:00:00 27.8 5 Sudeste 12 Oeste 0 -- -- 38
2020-09-22 11:00:00 24.5 6 Noroeste 14 Oeste 0 -- -- 46
2020-09-22 10:00:00 21.1 7 Oeste 17 Oeste 0 -- -- 60
2020-09-22 09:00:00 18 10 Oeste 19 Oeste 0 -- -- 70
2020-09-22 08:00:00 17.4 11 Oeste 19 Oeste 0 -- -- 71
2020-09-22 07:00:00 17 9 Oeste 16 Sudoeste 0 -- -- 74
2020-09-22 06:00:00 17.2 8 Oeste 14 Oeste 0 -- -- 74
2020-09-22 05:00:00 17.4 9 Oeste 16 Oeste 0 -- -- 75
2020-09-22 04:00:00 17.5 8 Oeste 13 Oeste 0 -- -- 75
2020-09-22 03:00:00 18.2 8 Oeste 13 Oeste 0 -- -- 73
2020-09-22 02:00:00 18.8 9 Oeste 14 Oeste 0 -- -- 71
2020-09-22 01:00:00 19.4 9 Oeste 12 Oeste 0 -- -- 68
2020-09-22 00:00:00 20.2 2 Noroeste 6 Noroeste 0 -- -- 65
2020-09-21 23:00:00 21.5 0 Calma 7 Nordeste 0 -- -- 61
2020-09-21 22:00:00 22.8 5 Noroeste 11 Noroeste 0 -- -- 56
2020-09-21 21:00:00 24.4 4 Sur 28 Sudoeste 0 -- -- 50
2020-09-21 20:00:00 26 13 Sur 26 Sur 0 -- -- 45
2020-09-21 19:00:00 28.4 6 Sur 19 Sudeste 0 -- -- 41
2020-09-21 18:00:00 29.1 13 Sudeste 27 Este 0 -- -- 37
2020-09-21 17:00:00 30.2 6 Este 19 Norte 0 -- -- 34
2020-09-21 16:00:00 30.4 7 Norte 27 Noroeste 0 -- -- 35
2020-09-21 15:00:00 29.8 10 Noroeste 24 Noroeste 0 -- -- 37
2020-09-21 14:00:00 28.6 13 Noroeste 21 Noroeste 0 -- -- 41
2020-09-21 13:00:00 27.2 14 Noroeste 24 Noroeste 0 -- -- 42
2020-09-21 12:00:00 25.2 9 Noroeste 19 Norte 0 -- -- 50
2020-09-21 11:00:00 22.7 8 Oeste 18 Oeste 0 -- -- 59
2020-09-21 10:00:00 20.8 12 Oeste 18 Oeste 0 -- -- 65
2020-09-21 09:00:00 18.6 10 Oeste 18 Sudoeste 0 -- -- 70
2020-09-21 08:00:00 18.2 10 Oeste 19 Oeste 0 -- -- 70
2020-09-21 07:00:00 18.4 11 Oeste 21 Oeste 0 -- -- 69
2020-09-21 06:00:00 18.2 10 Oeste 21 Oeste 0 -- -- 72
2020-09-21 05:00:00 18 12 Oeste 21 Oeste 0 -- -- 74
2020-09-21 04:00:00 18.3 13 Oeste 19 Oeste 0 -- -- 74
2020-09-21 03:00:00 18.3 12 Oeste 16 Oeste 0 -- -- 75
2020-09-21 02:00:00 18.9 11 Oeste 15 Oeste 0 -- -- 73
2020-09-21 01:00:00 19.1 10 Sudoeste 15 Oeste 0 -- -- 74
2020-09-21 00:00:00 20.7 6 Oeste 8 Oeste 0 -- -- 65
2020-09-20 23:00:00 21.5 2 Norte 10 Nordeste 0 -- -- 61
2020-09-20 22:00:00 22.5 3 Norte 10 Noroeste 0 -- -- 60
2020-09-20 21:00:00 23.7 2 Norte 24 Sur 0 -- -- 55
2020-09-20 20:00:00 24.6 15 Sur 31 Sur 0 -- -- 51
2020-09-20 19:00:00 26.7 11 Sur 27 Sur 0 -- -- 48
2020-09-20 18:00:00 28.9 13 Sur 27 Sudeste 0 -- -- 42
2020-09-20 17:00:00 30.6 6 Sudeste 17 Sudoeste 0 -- -- 34
2020-09-20 16:00:00 30.6 3 Nordeste 17 Este 0 -- -- 35
2020-09-20 15:00:00 29.8 6 Sudeste 19 Sudeste 0 -- -- 35
2020-09-20 14:00:00 28.8 3 Nordeste 17 Oeste 0 -- -- 37
2020-09-20 13:00:00 28 4 Este 20 Norte 0 -- -- 38
2020-09-20 12:00:00 25.8 16 Noroeste 25 Noroeste 0 -- -- 44
2020-09-20 11:00:00 24 14 Noroeste 20 Noroeste 0 -- -- 49
2020-09-20 10:00:00 21.4 10 Noroeste 17 Noroeste 0 -- -- 57
2020-09-20 09:00:00 18.8 11 Noroeste 18 Noroeste 0 -- -- 66
2020-09-20 08:00:00 17.3 10 Sudoeste 14 Sudoeste 0 -- -- 72
2020-09-20 07:00:00 17.8 10 Sudoeste 13 Sudoeste 0 -- -- 70
2020-09-20 06:00:00 19.6 8 Sudoeste 21 Norte 0 -- -- 61
2020-09-20 05:00:00 20.2 10 Noroeste 19 Noroeste 0 -- -- 58
2020-09-20 04:00:00 20.4 9 Noroeste 22 Noroeste 0 -- -- 60
2020-09-20 03:00:00 20 12 Noroeste 20 Noroeste 0 -- -- 65
2020-09-20 02:00:00 19.6 8 Oeste 22 Noroeste 0 -- -- 70
2020-09-20 01:00:00 20.2 8 Oeste 18 Sudoeste 0 -- -- 69
2020-09-20 00:00:00 22 8 Oeste 15 Oeste 0 -- -- 62
2020-09-19 23:00:00 22.8 4 Noroeste 21 Oeste 0 -- -- 58
2020-09-19 22:00:00 23.8 3 Sudoeste 30 Noroeste 0 -- -- 54
2020-09-19 21:00:00 24.6 6 Norte 21 Norte 0 -- -- 51
2020-09-19 20:00:00 26.4 6 Sudoeste 14 Sudoeste 0 -- -- 47
2020-09-19 19:00:00 28.1 7 Sur 15 Sur 0 -- -- 42
2020-09-19 18:00:00 29.5 8 Sur 20 Sur 0 -- -- 38
2020-09-19 17:00:00 30.6 4 Sudoeste 17 Norte 0 -- -- 35
2020-09-19 16:00:00 29.4 9 Norte 21 Norte 0 -- -- 38
2020-09-19 15:00:00 30 8 Norte 22 Sur 0 -- -- 36
2020-09-19 14:00:00 29.3 8 Sudoeste 26 Noroeste 0 -- -- 36
2020-09-19 13:00:00 27.6 13 Oeste 23 Noroeste 0 -- -- 39
2020-09-19 12:00:00 25.8 8 Noroeste 22 Oeste 0 -- -- 44
2020-09-19 11:00:00 24.1 9 Oeste 18 Noroeste 0 -- -- 50
2020-09-19 10:00:00 22.2 3 Este 6 Este 0 -- -- 58
2020-09-19 09:00:00 18.9 0 Calma 13 Noroeste 0 -- -- 69
2020-09-19 08:00:00 18.2 2 Norte 12 Norte 0 -- -- 67
2020-09-19 07:00:00 19.9 6 Noroeste 36 Sudoeste 0 -- -- 61
2020-09-19 06:00:00 18.8 11 Oeste 23 Oeste 0 -- -- 66
2020-09-19 05:00:00 16.7 8 Sudoeste 12 Oeste 0 -- -- 91
2020-09-19 04:00:00 17.1 3 Oeste 17 Sudoeste 0 -- -- 92
2020-09-19 03:00:00 17.8 9 Oeste 15 Oeste 0 -- -- 93
2020-09-19 02:00:00 18.4 8 Oeste 11 Oeste 0 -- -- 90
2020-09-19 01:00:00 18.9 4 Noroeste 10 Nordeste 0 -- -- 88
2020-09-19 00:00:00 19.5 6 Nordeste 10 Nordeste 0 -- -- 86
2020-09-18 23:00:00 20.1 5 Nordeste 10 Nordeste 0 -- -- 83
2020-09-18 22:00:00 20.9 6 Sudeste 15 Este 0 -- -- 79
2020-09-18 21:00:00 21.1 9 Este 19 Este 0 -- -- 78
2020-09-18 20:00:00 21.8 10 Sudeste 27 Sudeste 0 -- -- 79
2020-09-18 19:00:00 22.5 16 Sudeste 31 Sudeste 0 -- -- 79
2020-09-18 18:00:00 22.2 13 Este 21 Este 0 -- -- 81
2020-09-18 17:00:00 22.3 10 Este 25 Sudeste 0 -- -- 81
2020-09-18 16:00:00 21.7 12 Sudeste 21 Nordeste 0 -- -- 84
2020-09-18 15:00:00 19.2 14 Este 27 Sudeste 0 -- -- 93
2020-09-18 14:00:00 19 10 Este 23 Este 1.2 -- -- 94
2020-09-18 13:00:00 19 3 Este 14 Sudeste 0.6 -- -- 92
2020-09-18 12:00:00 19 2 Oeste 10 Este 0.4 -- -- 91
2020-09-18 11:00:00 18.7 4 Este 9 Este 0 -- -- 93
2020-09-18 10:00:00 18.2 5 Este 9 Este 0 -- -- 94
2020-09-18 09:00:00 17.9 3 Norte 7 Este 0 -- -- 92
2020-09-18 08:00:00 17.8 3 Norte 22 Noroeste 2.8 -- -- 91
2020-09-18 07:00:00 18.8 17 Noroeste 48 Oeste 0.8 -- -- 82
2020-09-18 06:00:00 19.7 17 Noroeste 32 Noroeste 0.4 -- -- 73
2020-09-18 05:00:00 20.4 14 Noroeste 22 Noroeste 0.2 -- -- 78
2020-09-18 04:00:00 21.1 17 Noroeste 33 Oeste 0.2 -- -- 77
2020-09-18 03:00:00 21.9 4 Noroeste 8 Oeste 0 -- -- 92
2020-09-18 02:00:00 22.1 2 Oeste 5 Oeste 0 -- -- 91
2020-09-18 01:00:00 22.1 2 Oeste 3 Oeste 0 -- -- 91
2020-09-18 00:00:00 21.9 0 Calma 5 Sudoeste 0 -- -- 90
2020-09-17 23:00:00 22.1 3 Nordeste 13 Este 0 -- -- 90
2020-09-17 22:00:00 22.7 4 Este 15 Este 0 -- -- 87
2020-09-17 21:00:00 23.1 7 Nordeste 17 Este 0 -- -- 85
2020-09-17 20:00:00 23.9 8 Este 14 Este 0 -- -- 83
2020-09-17 19:00:00 24.1 6 Este 24 Sur 1.6 -- -- 80
2020-09-17 18:00:00 27.4 16 Este 30 Este 0 -- -- 64
2020-09-17 17:00:00 28.8 15 Este 27 Este 0 -- -- 57
2020-09-17 16:00:00 28.1 20 Este 31 Este 0 -- -- 58
2020-09-17 15:00:00 27.6 19 Este 29 Este 0 -- -- 61
2020-09-17 14:00:00 26.7 14 Este 27 Sudeste 0 -- -- 64
2020-09-17 13:00:00 26.1 13 Este 21 Este 0 -- -- 66
2020-09-17 12:00:00 23.9 7 Nordeste 15 Este 0 -- -- 76
2020-09-17 11:00:00 22.8 4 Este 7 Este 0 -- -- 76
2020-09-17 10:00:00 21.8 2 Este 6 Este 0 -- -- 78
2020-09-17 09:00:00 21 3 Oeste 7 Noroeste 0 -- -- 82
2020-09-17 08:00:00 20.8 3 Norte 9 Oeste 0 -- -- 81
2020-09-17 07:00:00 20.8 5 Oeste 13 Oeste 0 -- -- 82
2020-09-17 06:00:00 20.7 0 Calma 13 Oeste 0 -- -- 83
2020-09-17 05:00:00 20.6 10 Oeste 14 Sudoeste 0 -- -- 82
2020-09-17 04:00:00 20.9 7 Oeste 12 Oeste 0 -- -- 79
2020-09-17 03:00:00 21.4 5 Oeste 8 Oeste 0 -- -- 80
2020-09-17 02:00:00 21.5 3 Oeste 5 Oeste 0 -- -- 76
2020-09-17 01:00:00 21.9 4 Nordeste 8 Norte 0 -- -- 76
2020-09-17 00:00:00 22.6 0 Calma 4 Nordeste 0 -- -- 71
2020-09-16 23:00:00 23.1 2 Nordeste 9 Sudeste 0 -- -- 64
2020-09-16 22:00:00 24.2 2 Sudeste 13 Este 0 -- -- 61
2020-09-16 21:00:00 25.3 9 Este 22 Este 0 -- -- 54
2020-09-16 20:00:00 26.5 14 Este 27 Este 0 -- -- 54
2020-09-16 19:00:00 28 14 Este 27 Este 0 -- -- 49
2020-09-16 18:00:00 29.1 18 Este 33 Este 0 -- -- 45
2020-09-16 17:00:00 30.3 18 Este 32 Este 0 -- -- 44
2020-09-16 16:00:00 31.1 15 Este 28 Sudeste 0 -- -- 42
2020-09-16 15:00:00 30.7 17 Este 30 Este 0 -- -- 43
2020-09-16 14:00:00 29.8 10 Este 21 Este 0 -- -- 44
2020-09-16 13:00:00 28.8 9 Sudeste 18 Sudeste 0 -- -- 46
2020-09-16 12:00:00 27.4 2 Este 10 Este 0 -- -- 52
2020-09-16 11:00:00 25 3 Oeste 12 Sudoeste 0 -- -- 64
2020-09-16 10:00:00 21.9 6 Sudoeste 13 Oeste 0 -- -- 74
2020-09-16 09:00:00 18.4 6 Oeste 12 Oeste 0 -- -- 83
2020-09-16 08:00:00 17.8 6 Oeste 14 Oeste 0 -- -- 89
2020-09-16 07:00:00 18.7 5 Oeste 14 Oeste 0 -- -- 91
2020-09-16 06:00:00 19.2 9 Oeste 13 Oeste 0 -- -- 89
2020-09-16 05:00:00 19.3 5 Oeste 11 Oeste 0 -- -- 87
2020-09-16 04:00:00 20 8 Oeste 10 Sudoeste 0 -- -- 83
2020-09-16 03:00:00 20.6 5 Oeste 9 Oeste 0 -- -- 84
2020-09-16 02:00:00 21.1 3 Oeste 6 Sudoeste 0 -- -- 87
2020-09-16 01:00:00 21.6 0 Calma 4 Norte 0 -- -- 84
2020-09-16 00:00:00 22 2 Nordeste 6 Nordeste 0 -- -- 83
2020-09-15 23:00:00 23.2 3 Este 14 Este 0 -- -- 79
2020-09-15 22:00:00 24.2 8 Este 18 Este 0 -- -- 73
2020-09-15 21:00:00 25.6 10 Este 24 Este 0 -- -- 64
2020-09-15 20:00:00 27.3 16 Este 30 Este 0 -- -- 45
2020-09-15 19:00:00 29.1 13 Este 30 Este 0 -- -- 44
2020-09-15 18:00:00 30.1 21 Este 32 Este 0 -- -- 46
2020-09-15 17:00:00 31.6 15 Este 30 Este 0 -- -- 38
2020-09-15 16:00:00 31.9 12 Este 27 Sudeste 0 -- -- 36
2020-09-15 15:00:00 31.7 9 Este 20 Este 0 -- -- 32
2020-09-15 14:00:00 31.1 5 Este 16 Este 0 -- -- 38
2020-09-15 13:00:00 29.5 9 Este 15 Este 0 -- -- 42
2020-09-15 12:00:00 28 7 Este 15 Este 0 -- -- 50
2020-09-15 11:00:00 25.7 4 Sudoeste 11 Oeste 0 -- -- 61
2020-09-15 10:00:00 22.4 5 Oeste 14 Sudoeste 0 -- -- 75
2020-09-15 09:00:00 19.4 9 Oeste 17 Sudoeste 0 -- -- 82
2020-09-15 08:00:00 19 6 Oeste 18 Oeste 0 -- -- 87
2020-09-15 07:00:00 19.3 8 Oeste 16 Oeste 0 -- -- 89
2020-09-15 06:00:00 19.9 8 Sudoeste 14 Oeste 0 -- -- 89
2020-09-15 05:00:00 20.8 5 Oeste 10 Oeste 0 -- -- 89
2020-09-15 04:00:00 21.2 4 Norte 11 Oeste 0 -- -- 86
2020-09-15 03:00:00 21.9 4 Sudoeste 9 Sudoeste 0 -- -- 89
2020-09-15 02:00:00 22 2 Oeste 18 Nordeste 0 -- -- 90
2020-09-15 01:00:00 22.2 8 Nordeste 20 Este 0 -- -- 90
2020-09-15 00:00:00 22.6 5 Este 21 Este 0.2 -- -- 87
2020-09-14 23:00:00 23.6 12 Este 23 Este 0 -- -- 74
2020-09-14 22:00:00 24.2 8 Este 16 Este 0 -- -- 71
2020-09-14 21:00:00 25 9 Este 17 Este 0 -- -- 65
2020-09-14 20:00:00 26 11 Este 23 Este 0 -- -- 57
2020-09-14 19:00:00 27.3 14 Este 24 Este 0 -- -- 52
2020-09-14 18:00:00 28.1 17 Este 28 Nordeste 0 -- -- 50
2020-09-14 17:00:00 29.2 16 Este 27 Este 0 -- -- 49
2020-09-14 16:00:00 28.9 12 Este 30 Este 0 -- -- 49
2020-09-14 15:00:00 29.2 14 Este 29 Este 0 -- -- 48
2020-09-14 14:00:00 28.7 14 Este 27 Este 0 -- -- 48
2020-09-14 13:00:00 27.7 8 Sudeste 19 Sudeste 0 -- -- 52
2020-09-14 12:00:00 26.5 9 Este 20 Sudeste 0 -- -- 59
2020-09-14 11:00:00 25 7 Nordeste 15 Este 0 -- -- 56
2020-09-14 10:00:00 21.5 7 Oeste 16 Oeste 0 -- -- 67
2020-09-14 09:00:00 17.9 8 Oeste 16 Oeste 0 -- -- 76
2020-09-14 08:00:00 17 8 Oeste 18 Oeste 0 -- -- 78
2020-09-14 07:00:00 16.7 13 Oeste 19 Oeste 0 -- -- 80
2020-09-14 06:00:00 17.2 11 Oeste 19 Oeste 0 -- -- 78
2020-09-14 05:00:00 17.2 12 Oeste 19 Oeste 0 -- -- 78
2020-09-14 04:00:00 18.1 3 Oeste 16 Oeste 0 -- -- 77
2020-09-14 03:00:00 18.4 11 Oeste 16 Oeste 0 -- -- 76
2020-09-14 02:00:00 19.1 12 Oeste 15 Oeste 0 -- -- 75
2020-09-14 01:00:00 20.4 8 Oeste 10 Oeste 0 -- -- 74
2020-09-14 00:00:00 21.8 4 Oeste 6 Oeste 0 -- -- 72
2020-09-13 23:00:00 23.4 2 Sudoeste 6 Este 0 -- -- 68
2020-09-13 22:00:00 24.3 6 Este 23 Este 0 -- -- 65
2020-09-13 21:00:00 25.3 15 Este 23 Este 0 -- -- 58
2020-09-13 20:00:00 26.7 11 Este 21 Este 0 -- -- 53
2020-09-13 19:00:00 28 9 Este 26 Este 0 -- -- 46
2020-09-13 18:00:00 28.5 18 Este 27 Este 0 -- -- 44
2020-09-13 17:00:00 29.4 17 Este 32 Este 0 -- -- 42
2020-09-13 16:00:00 29.8 16 Este 30 Sudeste 0 -- -- 40
2020-09-13 15:00:00 30.6 13 Este 29 Este 0 -- -- 38
2020-09-13 14:00:00 30 16 Este 26 Este 0 -- -- 39
2020-09-13 13:00:00 29 12 Sudeste 22 Sudeste 0 -- -- 42
2020-09-13 12:00:00 28.2 7 Sudeste 15 Sudeste 0 -- -- 44
2020-09-13 11:00:00 24.8 9 Sudoeste 17 Sudoeste 0 -- -- 57
2020-09-13 10:00:00 23.2 12 Oeste 20 Oeste 0 -- -- 58
2020-09-13 09:00:00 18.8 8 Oeste 16 Sudoeste 0 -- -- 71
2020-09-13 08:00:00 16.8 9 Oeste 18 Oeste 0 -- -- 76
2020-09-13 07:00:00 17 9 Oeste 19 Oeste 0 -- -- 75
2020-09-13 06:00:00 17.1 10 Oeste 19 Oeste 0 -- -- 78
2020-09-13 05:00:00 17.7 8 Oeste 19 Oeste 0 -- -- 77
2020-09-13 04:00:00 18.2 14 Oeste 20 Oeste 0 -- -- 77
2020-09-13 03:00:00 18.8 10 Oeste 16 Oeste 0 -- -- 75
2020-09-13 02:00:00 20 8 Oeste 12 Oeste 0 -- -- 77
2020-09-13 01:00:00 21.3 3 Noroeste 5 Oeste 0 -- -- 74
2020-09-13 00:00:00 22.2 3 Este 8 Este 0 -- -- 73
2020-09-12 23:00:00 23.1 5 Este 14 Este 0 -- -- 67
2020-09-12 22:00:00 24.4 12 Este 19 Nordeste 0 -- -- 61
2020-09-12 21:00:00 26.1 6 Este 23 Sudeste 0 -- -- 48
2020-09-12 20:00:00 27.6 12 Este 27 Este 0 -- -- 42
2020-09-12 19:00:00 29.2 18 Este 32 Este 0 -- -- 37
2020-09-12 18:00:00 30.9 13 Este 27 Este 0 -- -- 33
2020-09-12 17:00:00 31.9 13 Sudeste 27 Sudeste 0 -- -- 32
2020-09-12 16:00:00 32 12 Sudeste 27 Este 0 -- -- 32
2020-09-12 15:00:00 31.8 9 Sudeste 26 Sudeste 0 -- -- 34
2020-09-12 14:00:00 30.6 12 Sudeste 23 Sudeste 0 -- -- 36
2020-09-12 13:00:00 29.3 8 Sudeste 17 Este 0 -- -- 38
2020-09-12 12:00:00 27.5 6 Sudeste 16 Sudeste 0 -- -- 43
2020-09-12 11:00:00 25.1 3 Este 8 Sudeste 0 -- -- 55
2020-09-12 10:00:00 21.5 7 Sudoeste 14 Sudoeste 0 -- -- 64
2020-09-12 09:00:00 17.6 8 Oeste 14 Oeste 0 -- -- 73
2020-09-12 08:00:00 16 6 Oeste 19 Sudoeste 0 -- -- 77
2020-09-12 07:00:00 16.1 14 Oeste 19 Oeste 0 -- -- 74
2020-09-12 06:00:00 16.2 10 Sudoeste 14 Sudoeste 0 -- -- 71
2020-09-12 05:00:00 16.9 11 Oeste 14 Oeste 0 -- -- 69
2020-09-12 04:00:00 17.4 9 Sudoeste 17 Oeste 0 -- -- 67
2020-09-12 03:00:00 18.8 7 Sudoeste 12 Oeste 0 -- -- 65
2020-09-12 02:00:00 20 5 Oeste 8 Oeste 0 -- -- 63
2020-09-12 01:00:00 21 4 Sudoeste 7 Norte 0 -- -- 59
2020-09-12 00:00:00 21.3 3 Norte 6 Noroeste 0 -- -- 56
2020-09-11 23:00:00 22.7 4 Este 12 Este 0 -- -- 53
2020-09-11 22:00:00 23.5 4 Nordeste 17 Sudeste 0 -- -- 48
2020-09-11 21:00:00 25 9 Sudeste 24 Sudeste 0 -- -- 42
2020-09-11 20:00:00 27.1 8 Sur 26 Sur 0 -- -- 38
2020-09-11 19:00:00 29.4 12 Sur 28 Sudeste 0 -- -- 32
2020-09-11 18:00:00 31.1 10 Sur 29 Sudeste 0 -- -- 32
2020-09-11 17:00:00 32.1 12 Sur 31 Sudeste 0 -- -- 32
2020-09-11 16:00:00 32.6 12 Sur 22 Sudeste 0 -- -- 32
2020-09-11 15:00:00 31.7 9 Sudeste 26 Sudeste 0 -- -- 33
2020-09-11 14:00:00 31 9 Sudeste 19 Sudeste 0 -- -- 35
2020-09-11 13:00:00 29.8 9 Sudeste 18 Sudeste 0 -- -- 36
2020-09-11 12:00:00 27 5 Sudeste 14 Nordeste 0 -- -- 48
2020-09-11 11:00:00 24.7 6 Este 11 Este 0 -- -- 55
2020-09-11 10:00:00 21.6 3 Oeste 13 Oeste 0 -- -- 68
2020-09-11 09:00:00 17.9 9 Sudoeste 16 Oeste 0 -- -- 76
2020-09-11 08:00:00 16.3 8 Oeste 16 Noroeste 0 -- -- 80
2020-09-11 07:00:00 16.4 8 Oeste 15 Oeste 0 -- -- 82
2020-09-11 06:00:00 16.5 9 Oeste 17 Oeste 0 -- -- 84
2020-09-11 05:00:00 17 11 Oeste 14 Oeste 0 -- -- 83
2020-09-11 04:00:00 17.8 9 Oeste 15 Oeste 0 -- -- 81
2020-09-11 03:00:00 18.4 7 Oeste 14 Sudoeste 0 -- -- 79
2020-09-11 02:00:00 19.7 4 Oeste 6 Sudoeste 0 -- -- 78
2020-09-11 01:00:00 20.3 0 Calma 6 Este 0 -- -- 75
2020-09-11 00:00:00 20.9 0 Calma 6 Nordeste 0 -- -- 72
2020-09-10 23:00:00 21.7 3 Nordeste 6 Norte 0 -- -- 70
2020-09-10 22:00:00 23.2 3 Sur 12 Sudeste 0 -- -- 65
2020-09-10 21:00:00 24 5 Sudeste 17 Sudeste 0 -- -- 63
2020-09-10 20:00:00 25.4 8 Sur 22 Sudeste 0 -- -- 59
2020-09-10 19:00:00 27 10 Sur 23 Sudeste 0 -- -- 54
2020-09-10 18:00:00 28.8 10 Sur 26 Sudeste 0 -- -- 48
2020-09-10 17:00:00 30.9 12 Sudeste 28 Sudeste 0 -- -- 38
2020-09-10 16:00:00 30.8 9 Este 24 Sudeste 0 -- -- 33
2020-09-10 15:00:00 30.1 10 Este 21 Este 0 -- -- 36
2020-09-10 14:00:00 29.1 7 Sudeste 19 Este 0 -- -- 41
2020-09-10 13:00:00 27.6 7 Este 18 Este 0 -- -- 47
2020-09-10 12:00:00 26.1 5 Este 14 Sudeste 0 -- -- 52
2020-09-10 11:00:00 23.8 5 Este 12 Sudeste 0 -- -- 59
2020-09-10 10:00:00 21.3 4 Oeste 12 Oeste 0 -- -- 70
2020-09-10 09:00:00 17.6 8 Oeste 15 Oeste 0 -- -- 80
2020-09-10 08:00:00 15.9 7 Oeste 13 Oeste 0 -- -- 84
2020-09-10 07:00:00 16.3 7 Oeste 17 Sudoeste 0 -- -- 83
2020-09-10 06:00:00 16.1 10 Oeste 17 Sudoeste 0 -- -- 83
2020-09-10 05:00:00 16.5 7 Oeste 12 Sudoeste 0 -- -- 82
2020-09-10 04:00:00 17.5 6 Oeste 10 Oeste 0 -- -- 80
2020-09-10 03:00:00 18.4 6 Oeste 10 Oeste 0 -- -- 77
2020-09-10 02:00:00 19.3 5 Oeste 8 Sudoeste 0 -- -- 77
2020-09-10 01:00:00 20 2 Norte 8 Sur 0 -- -- 74
2020-09-10 00:00:00 21.3 4 Sur 10 Sudoeste 0 -- -- 72
2020-09-09 23:00:00 21.7 5 Sudeste 10 Sudeste 0 -- -- 68
2020-09-09 22:00:00 22.6 4 Sudeste 14 Este 0 -- -- 65
2020-09-09 21:00:00 23.8 8 Este 22 Este 0 -- -- 60
2020-09-09 20:00:00 25.4 12 Este 25 Sudeste 0 -- -- 52
2020-09-09 19:00:00 27.3 10 Sudeste 28 Este 0 -- -- 48
2020-09-09 18:00:00 28.9 16 Sudeste 28 Sudeste 0 -- -- 40
2020-09-09 17:00:00 29.6 12 Sudeste 21 Sudeste 0 -- -- 35
2020-09-09 16:00:00 29.9 8 Este 23 Este 0 -- -- 34
2020-09-09 15:00:00 29.2 12 Este 24 Este 0 -- -- 35
2020-09-09 14:00:00 28.9 6 Norte 19 Este 0 -- -- 38
2020-09-09 13:00:00 27.9 4 Sudeste 20 Sudoeste 0 -- -- 41
2020-09-09 12:00:00 25.6 9 Oeste 22 Noroeste 0 -- -- 48
2020-09-09 11:00:00 23.5 15 Norte 27 Noroeste 0 -- -- 54
2020-09-09 10:00:00 21.1 17 Noroeste 26 Noroeste 0 -- -- 61
2020-09-09 09:00:00 17.5 9 Oeste 18 Oeste 0 -- -- 74
2020-09-09 08:00:00 15.6 13 Oeste 19 Oeste 0 -- -- 75
2020-09-09 07:00:00 15.5 9 Oeste 17 Sudoeste 0 -- -- 76
2020-09-09 06:00:00 15.7 8 Oeste 18 Oeste 0 -- -- 75
2020-09-09 05:00:00 16 8 Oeste 17 Oeste 0 -- -- 75
2020-09-09 04:00:00 16.3 9 Oeste 15 Oeste 0 -- -- 75
2020-09-09 03:00:00 16.8 9 Oeste 14 Oeste 0 -- -- 77
2020-09-09 02:00:00 17.6 9 Oeste 14 Oeste 0 -- -- 76
2020-09-09 01:00:00 18.6 8 Oeste 11 Oeste 0 -- -- 72
2020-09-09 00:00:00 19.9 3 Norte 6 Sudoeste 0 -- -- 67
2020-09-08 23:00:00 21.1 3 Sudoeste 10 Este 0 -- -- 64
2020-09-08 22:00:00 21.3 6 Este 15 Este 0 -- -- 63
2020-09-08 21:00:00 21.9 9 Este 27 Este 0 -- -- 59
2020-09-08 20:00:00 22.9 14 Este 31 Este 0 -- -- 57
2020-09-08 19:00:00 24.4 16 Este 30 Este 0 -- -- 52
2020-09-08 18:00:00 25.7 12 Sudeste 30 Este 0 -- -- 44
2020-09-08 17:00:00 27.1 13 Sudeste 31 Este 0 -- -- 41
2020-09-08 16:00:00 26.9 14 Este 32 Este 0 -- -- 43
2020-09-08 15:00:00 26.2 15 Este 28 Este 0 -- -- 44
2020-09-08 14:00:00 26.6 14 Este 27 Sudeste 0 -- -- 40
2020-09-08 13:00:00 26 10 Este 26 Sudeste 0 -- -- 45
2020-09-08 12:00:00 24.2 10 Este 28 Este 0 -- -- 52
2020-09-08 11:00:00 23.2 13 Este 27 Este 0 -- -- 56
2020-09-08 10:00:00 21.7 5 Nordeste 14 Este 0 -- -- 58
2020-09-08 09:00:00 19.9 5 Sudoeste 8 Oeste 0 -- -- 73
2020-09-08 08:00:00 18.5 0 Calma 8 Oeste 0 -- -- 78
2020-09-08 07:00:00 18.6 0 Calma 6 Oeste 0 -- -- 75
2020-09-08 06:00:00 19 3 Oeste 7 Oeste 0 -- -- 78
2020-09-08 05:00:00 19.5 3 Oeste 4 Oeste 0 -- -- 76
2020-09-08 04:00:00 19.8 0 Calma 4 Nordeste 0 -- -- 74
2020-09-08 03:00:00 20.2 0 Calma 5 Nordeste 0 -- -- 74
2020-09-08 02:00:00 20.8 4 Nordeste 8 Este 0 -- -- 72
2020-09-08 01:00:00 21.2 4 Este 12 Sudeste 0 -- -- 70
2020-09-08 00:00:00 21.5 6 Este 25 Este 0 -- -- 69
2020-09-07 23:00:00 22 12 Este 29 Este 0 -- -- 71
2020-09-07 22:00:00 22.7 18 Este 33 Este 0 -- -- 67
2020-09-07 21:00:00 23.4 15 Este 27 Este 0 -- -- 68
2020-09-07 20:00:00 24.2 13 Sudeste 31 Sudeste 0 -- -- 67
2020-09-07 19:00:00 25.9 15 Sudeste 31 Este 0 -- -- 62
2020-09-07 18:00:00 26.7 19 Este 36 Este 0 -- -- 61
2020-09-07 17:00:00 29.2 17 Este 28 Este 0 -- -- 49
2020-09-07 16:00:00 30.1 10 Sudeste 21 Sudeste 0 -- -- 46
2020-09-07 15:00:00 29.3 7 Sudeste 21 Sudeste 0 -- -- 48
2020-09-07 14:00:00 27.9 4 Este 13 Nordeste 0 -- -- 54
2020-09-07 13:00:00 26 6 Este 14 Sudeste 0 -- -- 62
2020-09-07 12:00:00 23.9 0 Calma 18 Sudoeste 0 -- -- 71
2020-09-07 11:00:00 22.1 3 Oeste 6 Oeste 0 -- -- 79
2020-09-07 10:00:00 20.8 2 Sudoeste 8 Sudoeste 0 -- -- 83
2020-09-07 09:00:00 20.2 4 Oeste 8 Sudoeste 0 -- -- 85
2020-09-07 08:00:00 19.3 3 Oeste 9 Oeste 0 -- -- 85
2020-09-07 07:00:00 18.4 7 Oeste 10 Oeste 0 -- -- 86
2020-09-07 06:00:00 18.2 6 Oeste 9 Sudoeste 0 -- -- 85
2020-09-07 05:00:00 19.2 2 Noroeste 5 Norte 0 -- -- 83
2020-09-07 04:00:00 19.7 0 Calma 5 Norte 0 -- -- 82
2020-09-07 03:00:00 19.9 2 Norte 4 Norte 0 -- -- 81
2020-09-07 02:00:00 20.4 3 Nordeste 5 Nordeste 0 -- -- 80
2020-09-07 01:00:00 21.4 2 Nordeste 10 Este 0 -- -- 79
2020-09-07 00:00:00 22.1 6 Sudeste 17 Sudeste 0 -- -- 79
2020-09-06 23:00:00 22.9 6 Sudeste 18 Sudeste 0 -- -- 75
2020-09-06 22:00:00 23.9 8 Sudeste 17 Este 0 -- -- 70
2020-09-06 21:00:00 25.2 7 Sudeste 18 Sudeste 0 -- -- 64
2020-09-06 20:00:00 27.4 7 Sur 23 Este 0 -- -- 56
2020-09-06 19:00:00 29.1 12 Este 25 Este 0 -- -- 46
2020-09-06 18:00:00 29.8 12 Este 22 Este 0 -- -- 41
2020-09-06 17:00:00 30.3 10 Este 22 Este 0 -- -- 40
2020-09-06 16:00:00 30.2 7 Este 19 Sudeste 0 -- -- 39
2020-09-06 15:00:00 29.7 7 Sudeste 24 Este 0 -- -- 38
2020-09-06 14:00:00 28.7 9 Sur 19 Este 0 -- -- 44
2020-09-06 13:00:00 27.8 8 Sur 17 Este 0 -- -- 48
2020-09-06 12:00:00 26.4 8 Sudeste 18 Este 0 -- -- 54
2020-09-06 11:00:00 24.9 3 Norte 10 Sudoeste 0 -- -- 62
2020-09-06 10:00:00 22.3 8 Sudoeste 15 Oeste 0 -- -- 76
2020-09-06 09:00:00 19 10 Oeste 14 Sudoeste 0 -- -- 85
2020-09-06 08:00:00 17.1 6 Oeste 14 Oeste 0 -- -- 89
2020-09-06 07:00:00 17.1 9 Oeste 12 Oeste 0 -- -- 88
2020-09-06 06:00:00 17.6 6 Oeste 16 Oeste 0 -- -- 86
2020-09-06 05:00:00 18 10 Oeste 16 Oeste 0 -- -- 85
2020-09-06 04:00:00 18.4 10 Oeste 15 Oeste 0 -- -- 83
2020-09-06 03:00:00 19.6 7 Oeste 9 Oeste 0 -- -- 81
2020-09-06 02:00:00 20.6 3 Oeste 5 Oeste 0 -- -- 80
2020-09-06 01:00:00 21.3 2 Norte 5 Nordeste 0 -- -- 76
2020-09-06 00:00:00 22.3 0 Calma 7 Nordeste 0 -- -- 73
2020-09-05 23:00:00 22.9 4 Este 10 Sudeste 0 -- -- 71
2020-09-05 22:00:00 23.5 6 Sudeste 19 Este 0 -- -- 69
2020-09-05 21:00:00 24.5 13 Este 27 Este 0 -- -- 65
2020-09-05 20:00:00 26.1 16 Este 28 Este 0 -- -- 58
2020-09-05 19:00:00 27.9 20 Este 31 Este 0 -- -- 52
2020-09-05 18:00:00 29.3 13 Sudeste 27 Este 0 -- -- 46
2020-09-05 17:00:00 30.5 12 Este 24 Este 0 -- -- 34
2020-09-05 16:00:00 30.3 9 Este 23 Este 0 -- -- 35
2020-09-05 15:00:00 29.8 10 Este 25 Este 0 -- -- 39
2020-09-05 14:00:00 28.8 8 Este 19 Sudeste 0 -- -- 41
2020-09-05 13:00:00 27.4 8 Este 19 Sudeste 0 -- -- 47
2020-09-05 12:00:00 26.4 9 Este 17 Este 0 -- -- 54
2020-09-05 11:00:00 24.6 0 Calma 10 Oeste 0 -- -- 62
2020-09-05 10:00:00 21.8 4 Oeste 15 Oeste 0 -- -- 74
2020-09-05 09:00:00 18 8 Oeste 17 Oeste 0 -- -- 83
2020-09-05 08:00:00 16.1 10 Oeste 15 Oeste 0 -- -- 88
2020-09-05 07:00:00 16.7 5 Oeste 17 Oeste 0 -- -- 86
2020-09-05 06:00:00 17.2 12 Oeste 19 Oeste 0 -- -- 85
2020-09-05 05:00:00 17.6 10 Oeste 15 Sudoeste 0 -- -- 84
2020-09-05 04:00:00 18.5 12 Oeste 15 Oeste 0 -- -- 82
2020-09-05 03:00:00 18.7 11 Oeste 15 Oeste 0 -- -- 81
2020-09-05 02:00:00 19.1 9 Oeste 12 Oeste 0 -- -- 81
2020-09-05 01:00:00 20.3 6 Sudoeste 9 Sudoeste 0 -- -- 78
2020-09-05 00:00:00 21.3 4 Noroeste 5 Noroeste 0 -- -- 74
2020-09-04 23:00:00 22.3 4 Este 13 Este 0 -- -- 71
2020-09-04 22:00:00 23 7 Este 23 Este 0 -- -- 68
2020-09-04 21:00:00 23.9 12 Este 26 Este 0 -- -- 64
2020-09-04 20:00:00 25.4 14 Este 28 Este 0 -- -- 58
2020-09-04 19:00:00 27 13 Este 30 Este 0 -- -- 49
2020-09-04 18:00:00 28 14 Este 33 Este 0 -- -- 46
2020-09-04 17:00:00 28.7 15 Sudeste 30 Este 0 -- -- 45
2020-09-04 16:00:00 28.9 15 Este 31 Este 0 -- -- 43
2020-09-04 15:00:00 28.7 13 Este 28 Este 0 -- -- 45
2020-09-04 14:00:00 28.4 13 Este 29 Sudeste 0 -- -- 45
2020-09-04 13:00:00 27.6 10 Sudeste 29 Sudeste 0 -- -- 49
2020-09-04 12:00:00 25.7 11 Este 23 Sudeste 0 -- -- 56
2020-09-04 11:00:00 23.7 5 Este 12 Este 0 -- -- 65
2020-09-04 10:00:00 21.7 4 Oeste 12 Oeste 0 -- -- 75
2020-09-04 09:00:00 18.1 8 Oeste 14 Oeste 0 -- -- 84
2020-09-04 08:00:00 17 10 Oeste 15 Oeste 0 -- -- 84
2020-09-04 07:00:00 16.8 10 Oeste 16 Oeste 0 -- -- 83
2020-09-04 06:00:00 16.8 10 Sudoeste 17 Sudoeste 0 -- -- 83
2020-09-04 05:00:00 17.1 11 Oeste 16 Oeste 0 -- -- 81
2020-09-04 04:00:00 17.4 10 Oeste 18 Oeste 0 -- -- 80
2020-09-04 03:00:00 18.2 9 Oeste 16 Oeste 0 -- -- 77
2020-09-04 02:00:00 19.5 6 Oeste 11 Oeste 0 -- -- 76
2020-09-04 01:00:00 20.4 3 Norte 6 Norte 0 -- -- 74
2020-09-04 00:00:00 21.1 3 Nordeste 5 Este 0 -- -- 71
2020-09-03 23:00:00 22.4 2 Este 12 Sudeste 0 -- -- 67
2020-09-03 22:00:00 23.4 8 Este 21 Este 0 -- -- 63
2020-09-03 21:00:00 24.6 13 Este 26 Este 0 -- -- 55
2020-09-03 20:00:00 26.2 16 Este 28 Este 0 -- -- 50
2020-09-03 19:00:00 27.7 15 Sudeste 29 Este 0 -- -- 46
2020-09-03 18:00:00 28.8 15 Este 32 Este 0 -- -- 42
2020-09-03 17:00:00 29.7 11 Sudeste 30 Este 0 -- -- 42
2020-09-03 16:00:00 29.4 13 Este 32 Este 0 -- -- 42
2020-09-03 15:00:00 29.2 14 Este 37 Este 0 -- -- 43
2020-09-03 14:00:00 29 10 Sudeste 25 Este 0 -- -- 44
2020-09-03 13:00:00 27.8 8 Sudeste 20 Este 0 -- -- 49
2020-09-03 12:00:00 26.2 8 Este 19 Sudeste 0 -- -- 55
2020-09-03 11:00:00 24.6 5 Este 11 Este 0 -- -- 62
2020-09-03 10:00:00 22 5 Oeste 12 Sudoeste 0 -- -- 72
2020-09-03 09:00:00 18.4 9 Oeste 19 Oeste 0 -- -- 80
2020-09-03 08:00:00 16.1 11 Oeste 17 Oeste 0 -- -- 87
2020-09-03 07:00:00 16.3 11 Oeste 17 Oeste 0 -- -- 84
2020-09-03 06:00:00 17.2 10 Oeste 17 Oeste 0 -- -- 82
2020-09-03 05:00:00 17.6 10 Oeste 14 Oeste 0 -- -- 80
2020-09-03 04:00:00 18.6 8 Oeste 12 Sudoeste 0 -- -- 78
2020-09-03 03:00:00 19.4 0 Calma 3 Nordeste 0 -- -- 76
2020-09-03 02:00:00 19.9 0 Calma 4 Noroeste 0 -- -- 71
2020-09-03 01:00:00 21 2 Norte 6 Nordeste 0 -- -- 68
2020-09-03 00:00:00 21.8 3 Este 8 Este 0 -- -- 65
2020-09-02 23:00:00 22.9 5 Sudeste 14 Sudeste 0 -- -- 60
2020-09-02 22:00:00 23.6 5 Sudeste 15 Sudeste 0 -- -- 53
2020-09-02 21:00:00 24.5 9 Sudeste 21 Este 0 -- -- 54
2020-09-02 20:00:00 25.5 13 Este 24 Este 0 -- -- 49
2020-09-02 19:00:00 26.7 14 Este 29 Sudeste 0 -- -- 45
2020-09-02 18:00:00 27.3 15 Sudeste 31 Sudeste 0 -- -- 42
2020-09-02 17:00:00 28.8 17 Este 30 Este 0 -- -- 44
2020-09-02 16:00:00 29.4 17 Este 34 Sudeste 0 -- -- 42
2020-09-02 15:00:00 29.6 14 Sudeste 30 Sudeste 0 -- -- 43
2020-09-02 14:00:00 28.6 12 Este 24 Sudeste 0 -- -- 42
2020-09-02 13:00:00 27.7 7 Sudeste 18 Este 0 -- -- 47
2020-09-02 12:00:00 25.9 6 Este 17 Sudeste 0 -- -- 51
2020-09-02 11:00:00 24.3 8 Sudeste 15 Sudeste 0 -- -- 60
2020-09-02 10:00:00 22.6 2 Sur 12 Oeste 0 -- -- 66
2020-09-02 09:00:00 19.1 6 Oeste 12 Sudoeste 0 -- -- 78
2020-09-02 08:00:00 17.8 9 Oeste 12 Oeste 0 -- -- 80
2020-09-02 07:00:00 18.5 5 Oeste 7 Sudoeste 0 -- -- 78
2020-09-02 06:00:00 19.1 3 Oeste 9 Sudoeste 0 -- -- 76
2020-09-02 05:00:00 19.6 4 Sudoeste 6 Sudoeste 0 -- -- 75
2020-09-02 04:00:00 19.9 0 Calma 4 Norte 0 -- -- 74
2020-09-02 03:00:00 20 3 Norte 5 Norte 0 -- -- 73
2020-09-02 02:00:00 20.3 0 Calma 5 Este 0 -- -- 72
2020-09-02 01:00:00 21.1 4 Este 10 Este 0 -- -- 70
2020-09-02 00:00:00 21.4 5 Este 10 Este 0 -- -- 69
2020-09-01 23:00:00 21.9 3 Este 10 Este 0 -- -- 67
2020-09-01 22:00:00 22.3 4 Este 12 Sudeste 0 -- -- 65
2020-09-01 21:00:00 22.9 5 Sudeste 16 Sur 0 -- -- 63
2020-09-01 20:00:00 24 8 Sudeste 22 Sudeste 0 -- -- 60
2020-09-01 19:00:00 25.8 7 Sur 18 Sudeste 0 -- -- 54
2020-09-01 18:00:00 26.3 10 Este 17 Este 0 -- -- 52
2020-09-01 17:00:00 26.7 7 Sudeste 25 Este 0 -- -- 49
2020-09-01 16:00:00 26.2 13 Este 24 Este 0 -- -- 50
2020-09-01 15:00:00 26.2 8 Nordeste 15 Este 0 -- -- 51
2020-09-01 14:00:00 25.8 8 Este 14 Este 0 -- -- 52
2020-09-01 13:00:00 24.6 6 Este 15 Este 0 -- -- 57
2020-09-01 12:00:00 24.1 3 Este 14 Sudeste 0 -- -- 58
2020-09-01 11:00:00 23.9 6 Sudeste 14 Este 0 -- -- 58
2020-09-01 10:00:00 21.2 2 Oeste 11 Oeste 0 -- -- 71
2020-09-01 09:00:00 17.3 5 Oeste 14 Oeste 0 -- -- 80
2020-09-01 08:00:00 15 10 Oeste 16 Noroeste 0 -- -- 84
2020-09-01 07:00:00 15.5 12 Oeste 17 Oeste 0 -- -- 83
2020-09-01 06:00:00 16.2 4 Oeste 13 Oeste 0 -- -- 82
2020-09-01 05:00:00 16.5 12 Oeste 16 Sudoeste 0 -- -- 81
2020-09-01 04:00:00 17.6 7 Oeste 14 Oeste 0 -- -- 81
2020-09-01 03:00:00 18.8 6 Sudoeste 8 Oeste 0 -- -- 78
2020-09-01 02:00:00 20.3 0 Calma 12 Sudeste 0 -- -- 78
2020-09-01 01:00:00 20.9 5 Sudeste 14 Sudeste 0 -- -- 76
2020-09-01 00:00:00 21.4 5 Sudeste 13 Sudeste 0 -- -- 74
2020-08-31 23:00:00 21.9 6 Sudeste 16 Este 0 -- -- 69
2020-08-31 22:00:00 22.3 7 Sudeste 18 Sur 0 -- -- 64
2020-08-31 21:00:00 23.3 10 Sudeste 26 Sudeste 0 -- -- 61
2020-08-31 20:00:00 24.7 11 Sudeste 30 Sudeste 0 -- -- 54
2020-08-31 19:00:00 26.1 16 Sudeste 33 Sudeste 0 -- -- 49
2020-08-31 18:00:00 26.9 17 Este 33 Este 0 -- -- 47
2020-08-31 17:00:00 28.5 16 Este 29 Este 0 -- -- 41
2020-08-31 16:00:00 28.9 10 Este 24 Sudeste 0 -- -- 37
2020-08-31 15:00:00 27.8 13 Sudeste 32 Sudeste 0 -- -- 40
2020-08-31 14:00:00 28.3 8 Sur 27 Noroeste 0 -- -- 40
2020-08-31 13:00:00 26.5 9 Sudeste 22 Este 0 -- -- 45
2020-08-31 12:00:00 25.1 7 Este 19 Este 0 -- -- 49
2020-08-31 11:00:00 24.1 4 Sudeste 13 Este 0 -- -- 51
2020-08-31 10:00:00 21.3 4 Sudoeste 16 Oeste 0 -- -- 65
2020-08-31 09:00:00 17.6 9 Oeste 17 Oeste 0 -- -- 77
2020-08-31 08:00:00 15.5 8 Oeste 14 Oeste 0 -- -- 83
2020-08-31 07:00:00 15.5 8 Oeste 15 Oeste 0 -- -- 83
2020-08-31 06:00:00 15.3 13 Oeste 18 Sudoeste 0 -- -- 82
2020-08-31 05:00:00 16 10 Oeste 14 Oeste 0 -- -- 80
2020-08-31 04:00:00 16.8 11 Oeste 17 Oeste 0 -- -- 78
2020-08-31 03:00:00 17.3 8 Oeste 13 Oeste 0 -- -- 76
2020-08-31 02:00:00 18.1 8 Oeste 11 Oeste 0 -- -- 73
2020-08-31 01:00:00 19.2 2 Noroeste 4 Nordeste 0 -- -- 67
2020-08-31 00:00:00 19.8 0 Calma 6 Nordeste 0 -- -- 67
2020-08-30 23:00:00 20.5 4 Nordeste 17 Este 0 -- -- 67
2020-08-30 22:00:00 21.6 11 Este 28 Este 0 -- -- 64
2020-08-30 21:00:00 22.5 16 Este 33 Este 0 -- -- 59
2020-08-30 20:00:00 23.8 18 Este 33 Este 0 -- -- 55
2020-08-30 19:00:00 26.1 13 Este 31 Sudeste 0 -- -- 42
2020-08-30 18:00:00 27.9 11 Sudeste 27 Este 0 -- -- 35
2020-08-30 17:00:00 28.4 9 Sudeste 24 Este 0 -- -- 25
2020-08-30 16:00:00 29.4 5 Sudeste 21 Sudeste 0 -- -- 24
2020-08-30 15:00:00 28.3 8 Este 16 Este 0 -- -- 25
2020-08-30 14:00:00 27.2 3 Sur 14 Oeste 0 -- -- 27
2020-08-30 13:00:00 26.1 3 Oeste 16 Oeste 0 -- -- 32
2020-08-30 12:00:00 24.1 7 Oeste 20 Noroeste 0 -- -- 35
2020-08-30 11:00:00 22.8 14 Noroeste 25 Noroeste 0 -- -- 36
2020-08-30 10:00:00 21.2 15 Noroeste 31 Noroeste 0 -- -- 37
2020-08-30 09:00:00 19.1 9 Oeste 20 Oeste 0 -- -- 43
2020-08-30 08:00:00 17.3 8 Oeste 28 Oeste 0 -- -- 43
2020-08-30 07:00:00 18 8 Oeste 17 Oeste 0 -- -- 41
2020-08-30 06:00:00 18.6 8 Oeste 18 Noroeste 0 -- -- 40
2020-08-30 05:00:00 19.3 6 Oeste 21 Noroeste 0 -- -- 37
2020-08-30 04:00:00 20.2 10 Noroeste 24 Noroeste 0 -- -- 34
2020-08-30 03:00:00 20.4 17 Noroeste 26 Noroeste 0 -- -- 31
2020-08-30 02:00:00 20.6 13 Noroeste 19 Noroeste 0 -- -- 30
2020-08-30 01:00:00 22.5 8 Noroeste 16 Noroeste 0 -- -- 27
2020-08-30 00:00:00 22.8 12 Noroeste 19 Noroeste 0 -- -- 27
2020-08-29 23:00:00 23.9 6 Noroeste 23 Noroeste 0 -- -- 27
2020-08-29 22:00:00 25.1 12 Noroeste 34 Norte 0 -- -- 23
2020-08-29 21:00:00 26.1 21 Noroeste 45 Norte 0 -- -- 19
2020-08-29 20:00:00 28 26 Noroeste 44 Noroeste 0 -- -- 20
2020-08-29 19:00:00 28.5 15 Norte 45 Norte 0 -- -- 22
2020-08-29 18:00:00 31.6 15 Norte 42 Norte 0 -- -- 21
2020-08-29 17:00:00 33.1 8 Nordeste 26 Este 0 -- -- 19
2020-08-29 16:00:00 34.2 5 Noroeste 23 Norte 0 -- -- 18
2020-08-29 15:00:00 33.1 12 Este 22 Nordeste 0 -- -- 18
2020-08-29 14:00:00 32.3 5 Sur 19 Nordeste 0 -- -- 19
2020-08-29 13:00:00 31.4 9 Este 19 Este 0 -- -- 21
2020-08-29 12:00:00 29.8 7 Norte 19 Sudeste 0 -- -- 23
2020-08-29 11:00:00 28.5 7 Sudeste 24 Noroeste 0 -- -- 24
2020-08-29 10:00:00 25.4 11 Noroeste 19 Oeste 0 -- -- 29
2020-08-29 09:00:00 22.9 6 Oeste 18 Oeste 0 -- -- 36
2020-08-29 08:00:00 23 10 Oeste 18 Oeste 0 -- -- 33
2020-08-29 07:00:00 23.4 8 Oeste 17 Oeste 0 -- -- 37
2020-08-29 06:00:00 24.8 7 Sudoeste 24 Noroeste 0 -- -- 37
2020-08-29 05:00:00 25.8 17 Noroeste 24 Noroeste 0 -- -- 35
2020-08-29 04:00:00 26.4 7 Oeste 21 Oeste 0 -- -- 39
2020-08-29 03:00:00 27.2 15 Noroeste 23 Noroeste 0 -- -- 37
2020-08-29 02:00:00 27 11 Noroeste 18 Oeste 0 -- -- 39
2020-08-29 01:00:00 26.5 7 Oeste 14 Oeste 0 -- -- 42
2020-08-29 00:00:00 27.1 5 Oeste 14 Noroeste 0 -- -- 57
2020-08-28 23:00:00 28.1 5 Oeste 9 Oeste 0 -- -- 60
2020-08-28 22:00:00 29.6 0 Calma 14 Nordeste 0 -- -- 58
2020-08-28 21:00:00 31 8 Nordeste 16 Nordeste 0 -- -- 54
2020-08-28 20:00:00 32.9 6 Este 13 Sudeste 0 -- -- 44
2020-08-28 19:00:00 33.8 6 Sur 22 Sur 0 -- -- 39
2020-08-28 18:00:00 35.2 9 Sur 26 Sudeste 0 -- -- 33
2020-08-28 17:00:00 36.4 12 Sudeste 26 Sudeste 0 -- -- 36
2020-08-28 16:00:00 35.9 13 Sudeste 23 Este 0 -- -- 35
2020-08-28 15:00:00 34.9 8 Este 24 Este 0 -- -- 34
2020-08-28 14:00:00 33.5 12 Este 23 Este 0 -- -- 37
2020-08-28 13:00:00 32 9 Este 17 Sudeste 0 -- -- 40
2020-08-28 12:00:00 29.9 8 Sudeste 16 Sudeste 0 -- -- 44
2020-08-28 11:00:00 27.7 4 Este 8 Sudeste 0 -- -- 50
2020-08-28 10:00:00 24.7 3 Oeste 13 Oeste 0 -- -- 63
2020-08-28 09:00:00 20.6 7 Oeste 15 Oeste 0 -- -- 70
2020-08-28 08:00:00 18.5 11 Oeste 15 Oeste 0 -- -- 71
2020-08-28 07:00:00 19 11 Oeste 14 Sudoeste 0 -- -- 71
2020-08-28 06:00:00 19.8 10 Oeste 14 Oeste 0 -- -- 70
2020-08-28 05:00:00 20.4 7 Oeste 13 Oeste 0 -- -- 68
2020-08-28 04:00:00 21.4 4 Oeste 17 Oeste 0 -- -- 66
2020-08-28 03:00:00 21.9 10 Oeste 14 Oeste 0 -- -- 65
2020-08-28 02:00:00 23.7 6 Oeste 9 Oeste 0 -- -- 61
2020-08-28 01:00:00 25 3 Este 10 Nordeste 0 -- -- 64
2020-08-28 00:00:00 25.9 6 Este 9 Nordeste 0 -- -- 60